createdAt,value
2018-09-21T00:02:13.310Z,54.19
2018-09-21T00:04:46.909Z,54.27
2018-09-21T00:07:21.457Z,54.41
2018-09-21T00:09:54.164Z,54.56
2018-09-21T00:12:26.712Z,54.65
2018-09-21T00:15:04.910Z,54.87
2018-09-21T00:17:37.628Z,54.92
2018-09-21T00:20:11.028Z,55.04
2018-09-21T00:22:43.979Z,55.02
2018-09-21T00:25:16.570Z,55.14
2018-09-21T00:27:49.116Z,55.15
2018-09-21T00:30:22.116Z,55.21
2018-09-21T00:32:54.710Z,55.17
2018-09-21T00:35:27.357Z,55.13
2018-09-21T00:38:00.507Z,55.19
2018-09-21T00:40:33.430Z,55.30
2018-09-21T00:43:06.269Z,55.42
2018-09-21T00:45:39.311Z,55.50
2018-09-21T00:48:11.832Z,55.54
2018-09-21T00:50:44.412Z,55.66
2018-09-21T00:53:17.202Z,55.55
2018-09-21T00:55:49.760Z,55.71
2018-09-21T00:58:22.768Z,55.81
2018-09-21T01:00:56.788Z,55.80
2018-09-21T01:03:29.557Z,55.98
2018-09-21T01:06:02.888Z,55.95
2018-09-21T01:08:35.716Z,56.03
2018-09-21T01:11:08.379Z,56.15
2018-09-21T01:13:40.915Z,56.29
2018-09-21T01:16:21.596Z,56.29
2018-09-21T01:18:55.856Z,56.29
2018-09-21T01:21:28.453Z,56.33
2018-09-21T01:24:02.427Z,56.51
2018-09-21T01:26:35.269Z,56.67
2018-09-21T01:29:08.408Z,56.76
2018-09-21T01:31:41.900Z,56.90
2018-09-21T01:34:14.649Z,57.03
2018-09-21T01:36:47.294Z,57.39
2018-09-21T01:39:20.160Z,57.49
2018-09-21T01:41:52.733Z,57.72
2018-09-21T01:44:26.459Z,57.91
2018-09-21T01:46:59.224Z,57.84
2018-09-21T01:49:32.348Z,57.95
2018-09-21T01:52:04.956Z,57.84
2018-09-21T01:54:37.488Z,57.84
2018-09-21T01:57:11.050Z,58.00
2018-09-21T01:59:43.445Z,58.11
2018-09-21T02:02:16.012Z,58.33
2018-09-21T02:04:48.827Z,58.39
2018-09-21T02:07:21.447Z,58.42
2018-09-21T02:09:53.994Z,58.37
2018-09-21T02:12:26.933Z,58.34
2018-09-21T02:14:59.727Z,58.36
2018-09-21T02:17:34.065Z,58.25
2018-09-21T02:20:07.401Z,58.03
2018-09-21T02:22:39.964Z,57.75
2018-09-21T02:25:12.575Z,57.50
2018-09-21T02:27:45.491Z,57.38
2018-09-21T02:30:18.101Z,57.22
2018-09-21T02:32:50.891Z,56.97
2018-09-21T02:35:24.024Z,56.74
2018-09-21T02:37:56.416Z,56.57
2018-09-21T02:40:29.304Z,56.23
2018-09-21T02:43:02.212Z,55.87
2018-09-21T02:45:35.562Z,55.32
2018-09-21T02:48:09.289Z,54.89
2018-09-21T02:50:42.413Z,54.64
2018-09-21T02:53:16.552Z,54.20
2018-09-21T02:55:49.208Z,53.98
2018-09-21T02:58:23.189Z,53.71
2018-09-21T03:00:55.977Z,53.33
2018-09-21T03:03:28.388Z,53.03
2018-09-21T03:06:01.327Z,52.88
2018-09-21T03:08:34.152Z,52.53
2018-09-21T03:11:07.032Z,52.43
2018-09-21T03:13:40.237Z,52.32
2018-09-21T03:16:12.652Z,51.83
2018-09-21T03:18:47.993Z,52.04
2018-09-21T03:21:22.917Z,51.70
2018-09-21T03:23:56.848Z,51.59
2018-09-21T03:26:29.364Z,51.24
2018-09-21T03:29:02.309Z,51.45
2018-09-21T03:31:34.943Z,51.64
2018-09-21T03:34:07.491Z,51.73
2018-09-21T03:36:40.302Z,51.75
2018-09-21T03:39:12.836Z,51.78
2018-09-21T03:41:45.451Z,51.78
2018-09-21T03:44:18.757Z,51.73
2018-09-21T03:46:51.241Z,51.83
2018-09-21T03:49:25.164Z,51.90
2018-09-21T03:51:57.957Z,51.79
2018-09-21T03:54:31.843Z,51.80
2018-09-21T03:57:04.422Z,51.76
2018-09-21T03:59:37.308Z,51.63
2018-09-21T04:02:10.176Z,51.49
2018-09-21T04:04:43.820Z,51.56
2018-09-21T04:07:16.766Z,51.60
2018-09-21T04:09:50.177Z,51.58
2018-09-21T04:12:22.939Z,51.52
2018-09-21T04:14:57.119Z,51.51
2018-09-21T04:17:29.760Z,51.59
2018-09-21T04:20:02.277Z,51.50
2018-09-21T04:22:35.076Z,51.39
2018-09-21T04:25:09.646Z,51.39
2018-09-21T04:27:42.343Z,51.48
2018-09-21T04:30:20.017Z,51.61
2018-09-21T04:32:54.566Z,51.80
2018-09-21T04:35:28.073Z,51.98
2018-09-21T04:38:02.509Z,52.04
2018-09-21T04:40:34.994Z,52.12
2018-09-21T04:43:07.560Z,52.14
2018-09-21T04:45:41.454Z,52.27
2018-09-21T04:48:14.869Z,52.49
2018-09-21T04:50:47.437Z,52.63
2018-09-21T04:53:20.359Z,52.71
2018-09-21T04:55:53.096Z,52.80
2018-09-21T04:58:25.706Z,52.95
2018-09-21T05:00:58.472Z,53.22
2018-09-21T05:03:31.874Z,53.48
2018-09-21T05:06:05.921Z,53.83
2018-09-21T05:08:39.450Z,54.00
2018-09-21T05:11:12.370Z,54.23
2018-09-21T05:13:45.117Z,54.38
2018-09-21T05:16:17.620Z,54.57
2018-09-21T05:18:52.413Z,54.71
2018-09-21T05:21:25.031Z,54.90
2018-09-21T05:23:59.088Z,55.15
2018-09-21T05:26:32.740Z,55.17
2018-09-21T05:29:07.468Z,55.38
2018-09-21T05:31:41.779Z,55.54
2018-09-21T05:34:14.556Z,55.75
2018-09-21T05:36:47.040Z,55.83
2018-09-21T05:39:20.709Z,55.90
2018-09-21T05:41:54.044Z,56.16
2018-09-21T05:44:26.716Z,56.14
2018-09-21T05:47:00.671Z,56.10
2018-09-21T05:49:34.075Z,56.38
2018-09-21T05:52:07.008Z,56.55
2018-09-21T05:54:40.104Z,56.70
2018-09-21T05:57:18.056Z,56.88
2018-09-21T05:59:51.560Z,57.06
2018-09-21T06:02:27.272Z,57.21
2018-09-21T06:05:06.984Z,57.35
2018-09-21T06:07:39.575Z,57.37
2018-09-21T06:10:12.082Z,57.42
2018-09-21T06:12:46.052Z,57.51
2018-09-21T06:15:19.490Z,57.47
2018-09-21T06:17:52.505Z,57.63
2018-09-21T06:20:25.635Z,57.68
2018-09-21T06:22:59.917Z,57.62
2018-09-21T06:25:33.772Z,57.69
2018-09-21T06:28:07.838Z,57.60
2018-09-21T06:30:43.126Z,57.57
2018-09-21T06:33:16.689Z,57.46
2018-09-21T06:35:49.822Z,57.43
2018-09-21T06:38:22.352Z,57.38
2018-09-21T06:40:54.963Z,57.32
2018-09-21T06:43:28.261Z,57.34
2018-09-21T06:46:00.933Z,57.21
2018-09-21T06:48:35.093Z,57.10
2018-09-21T06:51:08.742Z,57.07
2018-09-21T06:53:41.892Z,56.96
2018-09-21T06:56:15.294Z,56.83
2018-09-21T06:58:48.239Z,56.72
2018-09-21T07:01:21.549Z,56.79
2018-09-21T07:03:54.041Z,56.36
2018-09-21T07:06:26.949Z,56.36
2018-09-21T07:08:59.828Z,56.20
2018-09-21T07:11:34.293Z,55.77
2018-09-21T07:14:09.708Z,55.44
2018-09-21T07:16:42.635Z,55.46
2018-09-21T07:19:15.473Z,55.13
2018-09-21T07:21:50.825Z,55.09
2018-09-21T07:24:23.690Z,55.12
2018-09-21T07:26:56.232Z,54.79
2018-09-21T07:29:32.120Z,54.87
2018-09-21T07:32:05.561Z,54.43
2018-09-21T07:34:38.483Z,53.60
2018-09-21T07:37:11.124Z,52.63
2018-09-21T07:39:43.584Z,52.52
2018-09-21T07:42:16.565Z,52.56
2018-09-21T07:44:50.203Z,52.32
2018-09-21T07:47:23.981Z,52.52
2018-09-21T07:49:58.200Z,52.14
2018-09-21T07:52:33.457Z,51.63
2018-09-21T07:55:17.967Z,52.85
2018-09-21T07:57:51.632Z,53.56
2018-09-21T08:00:24.837Z,53.61
2018-09-21T08:03:05.240Z,54.37
2018-09-21T08:05:39.250Z,54.06
2018-09-21T08:08:12.866Z,53.75
2018-09-21T08:10:46.896Z,52.78
2018-09-21T08:13:20.765Z,52.50
2018-09-21T08:16:10.437Z,52.15
2018-09-21T08:18:43.163Z,51.44
2018-09-21T08:21:15.669Z,51.57
2018-09-21T08:23:48.476Z,51.59
2018-09-21T08:26:21.639Z,51.33
2018-09-21T08:28:54.296Z,51.13
2018-09-21T08:31:27.680Z,51.08
2018-09-21T08:34:02.952Z,51.41
2018-09-21T08:36:37.075Z,53.62
2018-09-21T08:39:11.956Z,56.95
2018-09-21T08:41:47.268Z,61.81
2018-09-21T08:44:22.691Z,67.73
2018-09-21T08:46:55.376Z,71.28
2018-09-21T08:49:29.138Z,75.95
2018-09-21T08:52:05.684Z,78.35
2018-09-21T08:54:40.433Z,81.34
2018-09-21T08:57:13.295Z,83.49
2018-09-21T08:59:46.936Z,76.22
2018-09-21T09:02:22.337Z,77.70
2018-09-21T09:04:55.913Z,80.80
2018-09-21T09:07:28.933Z,81.56
2018-09-21T09:10:02.268Z,82.97
2018-09-21T09:12:37.187Z,84.17
2018-09-21T09:15:13.934Z,85.04
2018-09-21T09:17:50.445Z,84.77
2018-09-21T09:20:24.789Z,85.53
2018-09-21T09:22:59.413Z,85.99
2018-09-21T09:25:33.696Z,85.77
2018-09-21T09:28:10.701Z,85.69
2018-09-21T09:30:46.021Z,85.38
2018-09-21T09:33:20.818Z,85.55
2018-09-21T09:35:54.360Z,86.89
2018-09-21T09:38:26.936Z,87.51
2018-09-21T09:41:03.337Z,88.00
2018-09-21T09:43:36.566Z,88.61
2018-09-21T09:46:12.953Z,89.12
2018-09-21T09:48:48.277Z,89.51
2018-09-21T09:51:25.181Z,89.77
2018-09-21T09:53:58.557Z,89.89
2018-09-21T09:56:32.568Z,90.16
2018-09-21T09:59:06.531Z,90.30
2018-09-21T10:01:44.476Z,90.48
2018-09-21T10:04:19.468Z,90.72
2018-09-21T10:06:54.967Z,90.87
2018-09-21T10:09:29.780Z,90.88
2018-09-21T10:12:02.384Z,90.75
2018-09-21T10:14:36.452Z,90.76
2018-09-21T10:17:09.785Z,90.89
2018-09-21T10:19:45.881Z,91.07
2018-09-21T10:22:21.041Z,91.09
2018-09-21T10:24:55.716Z,90.99
2018-09-21T10:27:29.345Z,90.94
2018-09-21T10:30:06.715Z,91.00
2018-09-21T10:32:40.209Z,91.12
2018-09-21T10:35:15.860Z,91.23
2018-09-21T10:37:51.593Z,91.13
2018-09-21T10:40:25.462Z,91.13
2018-09-21T10:42:59.583Z,91.23
2018-09-21T10:45:33.029Z,91.10
2018-09-21T10:48:06.488Z,90.99
2018-09-21T10:50:40.969Z,90.85
2018-09-21T10:53:15.629Z,90.62
2018-09-21T10:55:49.991Z,89.98
2018-09-21T10:58:24.280Z,89.35
2018-09-21T11:00:58.089Z,89.38
2018-09-21T11:03:32.222Z,89.33
2018-09-21T11:06:06.458Z,89.18
2018-09-21T11:08:41.624Z,89.14
2018-09-21T11:11:24.290Z,89.31
2018-09-21T11:13:57.472Z,89.07
2018-09-21T11:16:31.685Z,87.73
2018-09-21T11:19:09.811Z,88.14
2018-09-21T11:21:47.432Z,87.41
2018-09-21T11:24:21.144Z,87.02
2018-09-21T11:26:54.496Z,86.98
2018-09-21T11:29:27.545Z,86.87
2018-09-21T11:32:02.076Z,86.77
2018-09-21T11:34:35.367Z,86.39
2018-09-21T11:37:11.069Z,86.15
2018-09-21T11:39:44.760Z,85.84
2018-09-21T11:42:18.804Z,84.42
2018-09-21T11:44:51.539Z,83.35
2018-09-21T11:47:24.296Z,81.80
2018-09-21T11:49:59.412Z,79.50
2018-09-21T11:52:32.482Z,79.87
2018-09-21T11:55:07.679Z,79.55
2018-09-21T11:57:41.672Z,79.38
2018-09-21T12:00:16.821Z,79.84
2018-09-21T12:02:49.444Z,79.79
2018-09-21T12:05:25.055Z,79.81
2018-09-21T12:08:00.653Z,79.45
2018-09-21T12:10:34.662Z,77.77
2018-09-21T12:13:09.342Z,76.96
2018-09-21T12:15:45.644Z,75.83
2018-09-21T12:18:19.785Z,75.40
2018-09-21T12:20:56.301Z,74.40
2018-09-21T12:23:31.682Z,74.50
2018-09-21T12:26:06.169Z,74.83
2018-09-21T12:28:40.793Z,76.14
2018-09-21T12:31:18.794Z,75.85
2018-09-21T12:33:53.483Z,75.93
2018-09-21T12:36:28.645Z,76.04
2018-09-21T12:39:02.558Z,76.26
2018-09-21T12:41:38.457Z,75.81
2018-09-21T12:44:15.599Z,72.44
2018-09-21T12:46:48.176Z,69.63
2018-09-21T12:49:28.693Z,70.26
2018-09-21T12:52:03.426Z,68.73
2018-09-21T12:54:40.066Z,65.96
2018-09-21T12:57:14.320Z,66.76
2018-09-21T12:59:47.576Z,66.49
2018-09-21T13:02:21.737Z,65.13
2018-09-21T13:04:55.096Z,64.13
2018-09-21T13:07:28.637Z,63.65
2018-09-21T13:10:09.213Z,64.09
2018-09-21T13:12:46.363Z,63.37
2018-09-21T13:15:21.113Z,64.16
2018-09-21T13:17:55.394Z,61.86
2018-09-21T13:20:28.148Z,59.96
2018-09-21T13:23:05.360Z,60.08
2018-09-21T13:25:39.136Z,60.40
2018-09-21T13:28:12.272Z,58.92
2018-09-21T13:30:47.013Z,58.63
2018-09-21T13:33:23.024Z,59.49
2018-09-21T13:35:56.749Z,57.21
2018-09-21T13:38:31.302Z,55.82
2018-09-21T13:41:04.112Z,57.19
2018-09-21T13:43:37.004Z,56.41
2018-09-21T13:46:12.152Z,52.22
2018-09-21T13:48:48.457Z,52.48
2018-09-21T13:51:22.159Z,50.05
2018-09-21T13:53:54.809Z,49.33
2018-09-21T13:56:27.790Z,48.25
2018-09-21T13:59:02.704Z,48.35
2018-09-21T14:01:37.973Z,48.88
2018-09-21T14:04:12.054Z,48.34
2018-09-21T14:06:45.669Z,49.01
2018-09-21T14:09:20.597Z,49.23
2018-09-21T14:11:53.594Z,49.40
2018-09-21T14:14:28.213Z,49.54
2018-09-21T14:17:00.748Z,48.86
2018-09-21T14:19:33.698Z,49.53
2018-09-21T14:22:06.805Z,49.37
2018-09-21T14:24:44.644Z,49.32
2018-09-21T14:27:20.180Z,48.72
2018-09-21T14:29:54.308Z,46.47
2018-09-21T14:32:27.372Z,46.65
2018-09-21T14:35:01.181Z,46.06
2018-09-21T14:37:34.915Z,45.73
2018-09-21T14:40:09.255Z,45.56
2018-09-21T14:42:42.062Z,45.13
2018-09-21T14:45:17.915Z,44.16
2018-09-21T14:47:52.602Z,43.36
2018-09-21T14:50:25.699Z,43.57
2018-09-21T14:53:09.475Z,42.64
2018-09-21T14:55:42.921Z,42.76
2018-09-21T14:58:15.613Z,41.82
2018-09-21T15:00:49.597Z,42.00
2018-09-21T15:03:22.380Z,42.89
2018-09-21T15:05:57.064Z,44.18
2018-09-21T15:08:32.671Z,44.92
2018-09-21T15:11:06.113Z,44.63
2018-09-21T15:13:39.733Z,44.22
2018-09-21T15:16:13.453Z,44.51
2018-09-21T15:18:50.449Z,44.50
2018-09-21T15:21:25.299Z,44.38
2018-09-21T15:23:59.689Z,43.51
2018-09-21T15:26:36.384Z,44.19
2018-09-21T15:29:10.000Z,44.50
2018-09-21T15:31:42.585Z,45.02
2018-09-21T15:34:16.332Z,44.29
2018-09-21T15:36:50.837Z,42.86
2018-09-21T15:39:26.797Z,43.38
2018-09-21T15:42:01.561Z,42.19
2018-09-21T15:44:35.984Z,41.02
2018-09-21T15:47:08.834Z,41.32
2018-09-21T15:49:41.896Z,40.73
2018-09-21T15:52:14.455Z,41.20
2018-09-21T15:54:47.111Z,42.54
2018-09-21T15:57:21.302Z,43.27
2018-09-21T15:59:58.568Z,42.81
2018-09-21T16:02:31.372Z,43.59
2018-09-21T16:05:07.153Z,44.09
2018-09-21T16:07:41.597Z,44.42
2018-09-21T16:10:15.437Z,44.47
2018-09-21T16:12:49.424Z,43.97
2018-09-21T16:15:45.917Z,43.19
2018-09-21T16:18:22.093Z,42.51
2018-09-21T16:20:58.459Z,42.32
2018-09-21T16:23:32.646Z,41.25
2018-09-21T16:26:11.861Z,38.35
2018-09-21T16:28:48.252Z,38.43
2018-09-21T16:31:22.125Z,38.26
2018-09-21T16:33:55.188Z,38.54
2018-09-21T16:36:30.610Z,38.73
2018-09-21T16:39:08.185Z,38.60
2018-09-21T16:41:41.462Z,38.03
2018-09-21T16:44:17.895Z,38.32
2018-09-21T16:46:50.553Z,38.02
2018-09-21T16:49:23.484Z,38.01
2018-09-21T16:52:00.070Z,38.45
2018-09-21T16:54:34.165Z,38.05
2018-09-21T16:57:06.868Z,37.81
2018-09-21T16:59:40.573Z,37.97
2018-09-21T17:02:13.380Z,38.41
2018-09-21T17:04:49.773Z,38.57
2018-09-21T17:07:22.978Z,39.00
2018-09-21T17:09:57.563Z,39.22
2018-09-21T17:12:30.958Z,39.67
2018-09-21T17:15:07.278Z,40.14
2018-09-21T17:17:41.378Z,40.75
2018-09-21T17:20:19.053Z,41.36
2018-09-21T17:22:56.580Z,41.90
2018-09-21T17:25:32.236Z,42.49
2018-09-21T17:28:10.533Z,42.93
2018-09-21T17:30:46.292Z,43.16
2018-09-21T17:33:22.991Z,43.16
2018-09-21T17:35:58.108Z,43.31
2018-09-21T17:38:31.724Z,43.18
2018-09-21T17:41:08.405Z,43.72
2018-09-21T17:43:43.713Z,44.22
2018-09-21T17:46:20.312Z,44.35
2018-09-21T17:48:53.828Z,44.55
2018-09-21T17:51:26.623Z,44.58
2018-09-21T17:54:01.283Z,44.58
2018-09-21T17:56:35.041Z,44.95
2018-09-21T17:59:10.463Z,45.24
2018-09-21T18:01:52.823Z,45.30
2018-09-21T18:04:27.205Z,45.22
2018-09-21T18:07:03.637Z,45.56
2018-09-21T18:09:36.790Z,46.02
2018-09-21T18:12:10.517Z,46.78
2018-09-21T18:14:47.738Z,47.01
2018-09-21T18:17:21.346Z,47.17
2018-09-21T18:19:56.487Z,47.23
2018-09-21T18:22:33.409Z,47.59
2018-09-21T18:25:11.565Z,47.56
2018-09-21T18:27:46.321Z,47.70
2018-09-21T18:30:22.061Z,47.91
2018-09-21T18:32:57.850Z,48.10
2018-09-21T18:35:35.892Z,48.13
2018-09-21T18:38:13.555Z,48.34
2018-09-21T18:40:51.920Z,48.60
2018-09-21T18:43:29.257Z,48.89
2018-09-21T18:46:04.806Z,49.13
2018-09-21T18:48:39.665Z,49.40
2018-09-21T18:51:13.669Z,49.51
2018-09-21T18:53:50.005Z,49.87
2018-09-21T18:56:24.746Z,50.03
2018-09-21T18:58:57.844Z,50.45
2018-09-21T19:01:31.374Z,50.80
2018-09-21T19:04:07.600Z,50.94
2018-09-21T19:06:43.259Z,51.17
2018-09-21T19:09:23.072Z,51.13
2018-09-21T19:11:57.729Z,51.10
2018-09-21T19:14:31.391Z,51.02
2018-09-21T19:17:06.506Z,51.11
2018-09-21T19:20:00.392Z,51.17
2018-09-21T19:22:33.953Z,51.36
2018-09-21T19:25:10.244Z,51.44
2018-09-21T19:27:43.348Z,51.48
2018-09-21T19:30:34.811Z,51.47
2018-09-21T19:33:08.749Z,51.50
2018-09-21T19:35:44.449Z,51.37
2018-09-21T19:38:20.809Z,51.35
2018-09-21T19:40:58.884Z,51.46
2018-09-21T19:43:33.827Z,51.28
2018-09-21T19:46:11.528Z,51.32
2018-09-21T19:48:45.631Z,50.51
2018-09-21T19:51:19.629Z,50.64
2018-09-21T19:53:53.668Z,50.51
2018-09-21T19:56:26.463Z,50.01
2018-09-21T19:59:03.244Z,50.04
2018-09-21T20:01:41.161Z,50.13
2018-09-21T20:04:19.669Z,49.88
2018-09-21T20:06:57.041Z,50.23
2018-09-21T20:09:33.765Z,50.21
2018-09-21T20:12:09.404Z,50.33
2018-09-21T20:14:51.010Z,50.65
2018-09-21T20:17:30.645Z,50.41
2018-09-21T20:20:06.262Z,49.90
2018-09-21T20:22:43.913Z,49.44
2018-09-21T20:25:23.568Z,50.00
2018-09-21T20:28:02.540Z,50.49
2018-09-21T20:30:46.324Z,50.92
2018-09-21T20:33:24.264Z,51.23
2018-09-21T20:35:58.438Z,51.53
2018-09-21T20:38:33.257Z,51.68
2018-09-21T20:41:10.882Z,51.81
2018-09-21T20:43:44.758Z,52.04
2018-09-21T20:46:21.109Z,52.67
2018-09-21T20:48:59.003Z,53.00
2018-09-21T20:51:39.891Z,53.20
2018-09-21T20:54:15.780Z,53.47
2018-09-21T20:56:52.065Z,53.85
2018-09-21T20:59:31.028Z,53.91
2018-09-21T21:02:11.462Z,54.19
2018-09-21T21:04:47.359Z,54.37
2018-09-21T21:07:24.534Z,54.69
2018-09-21T21:09:59.636Z,54.94
2018-09-21T21:12:33.140Z,55.22
2018-09-21T21:15:15.505Z,55.29
2018-09-21T21:17:50.329Z,55.64
2018-09-21T21:20:24.258Z,56.02
2018-09-21T21:22:58.688Z,56.46
2018-09-21T21:25:36.195Z,56.83
2018-09-21T21:28:10.905Z,57.09
2018-09-21T21:30:45.349Z,57.24
2018-09-21T21:33:20.052Z,57.80
2018-09-21T21:35:54.574Z,58.02
2018-09-21T21:38:29.968Z,58.37
2018-09-21T21:41:07.640Z,58.46
2018-09-21T21:43:40.358Z,58.91
2018-09-21T21:46:24.670Z,59.00
2018-09-21T21:48:58.164Z,59.18
2018-09-21T21:51:30.940Z,59.41
2018-09-21T21:54:06.323Z,59.81
2018-09-21T21:56:40.181Z,60.19
2018-09-21T21:59:14.013Z,60.40
2018-09-21T22:01:48.677Z,60.39
2018-09-21T22:04:21.414Z,60.48
2018-09-21T22:06:54.097Z,60.35
2018-09-21T22:09:27.930Z,60.34
2018-09-21T22:12:06.644Z,60.43
2018-09-21T22:14:39.296Z,60.67
2018-09-21T22:17:14.403Z,60.87
2018-09-21T22:19:47.789Z,61.28
2018-09-21T22:22:24.885Z,61.50
2018-09-21T22:24:57.997Z,62.01
2018-09-21T22:27:32.102Z,62.09
2018-09-21T22:30:12.718Z,62.42
2018-09-21T22:32:46.244Z,62.95
2018-09-21T22:35:20.872Z,62.92
2018-09-21T22:37:54.725Z,62.97
2018-09-21T22:40:29.212Z,63.01
2018-09-21T22:43:01.799Z,63.02
2018-09-21T22:45:37.615Z,63.11
2018-09-21T22:48:10.223Z,63.30
2018-09-21T22:50:42.777Z,63.01
2018-09-21T22:53:16.740Z,62.90
2018-09-21T22:55:49.333Z,62.72
2018-09-21T22:58:23.017Z,62.62
2018-09-21T23:00:58.016Z,62.68
2018-09-21T23:03:31.273Z,62.70
2018-09-21T23:06:05.348Z,62.76
2018-09-21T23:08:40.461Z,62.88
2018-09-21T23:11:13.006Z,62.61
2018-09-21T23:13:46.043Z,62.65
2018-09-21T23:16:23.674Z,62.79
2018-09-21T23:18:57.852Z,62.78
2018-09-21T23:21:35.757Z,62.85
2018-09-21T23:24:12.426Z,62.71
2018-09-21T23:26:46.956Z,62.71
2018-09-21T23:29:19.932Z,62.70
2018-09-21T23:31:52.779Z,62.86
2018-09-21T23:34:26.495Z,62.92
2018-09-21T23:37:03.012Z,62.93
2018-09-21T23:39:37.174Z,63.04
2018-09-21T23:42:10.716Z,63.08
2018-09-21T23:44:44.776Z,63.12
2018-09-21T23:47:18.363Z,63.06
2018-09-21T23:49:50.928Z,63.09
2018-09-21T23:52:23.874Z,63.52
2018-09-21T23:54:56.557Z,64.73
2018-09-21T23:57:29.162Z,65.25
